createdAt,value
2022-11-30T00:00:57.048Z,93.67
2022-11-30T00:03:26.314Z,93.70
2022-11-30T00:05:52.870Z,93.70
2022-11-30T00:08:21.497Z,93.63
2022-11-30T00:10:47.838Z,93.48
2022-11-30T00:13:14.159Z,93.48
2022-11-30T00:15:40.510Z,93.35
2022-11-30T00:18:06.895Z,93.36
2022-11-30T00:20:33.440Z,92.96
2022-11-30T00:22:59.741Z,92.82
2022-11-30T00:25:26.250Z,92.92
2022-11-30T00:27:52.611Z,92.91
2022-11-30T00:30:19.266Z,92.87
2022-11-30T00:32:45.586Z,93.14
2022-11-30T00:35:11.980Z,93.07
2022-11-30T00:37:38.282Z,93.21
2022-11-30T00:40:06.194Z,93.11
2022-11-30T00:42:32.539Z,93.21
2022-11-30T00:44:58.898Z,93.19
2022-11-30T00:47:25.199Z,93.17
2022-11-30T00:49:51.744Z,93.21
2022-11-30T00:52:19.170Z,93.12
2022-11-30T00:54:47.239Z,92.96
2022-11-30T00:57:13.809Z,92.75
2022-11-30T00:59:40.146Z,92.96
2022-11-30T01:02:06.497Z,92.91
2022-11-30T01:04:32.861Z,92.88
2022-11-30T01:06:59.172Z,93.09
2022-11-30T01:09:26.523Z,92.95
2022-11-30T01:11:56.572Z,92.95
2022-11-30T01:14:22.880Z,92.92
2022-11-30T01:16:54.724Z,92.90
2022-11-30T01:19:22.491Z,92.95
2022-11-30T01:21:48.814Z,92.97
2022-11-30T01:24:15.253Z,92.83
2022-11-30T01:26:41.631Z,93.10
2022-11-30T01:29:09.303Z,93.22
2022-11-30T01:31:36.750Z,93.19
2022-11-30T01:34:03.187Z,93.24
2022-11-30T01:36:30.569Z,93.21
2022-11-30T01:38:57.942Z,93.27
2022-11-30T01:41:28.151Z,93.25
2022-11-30T01:43:58.205Z,93.25
2022-11-30T01:46:29.167Z,93.31
2022-11-30T01:49:09.911Z,93.19
2022-11-30T01:51:50.975Z,93.24
2022-11-30T01:54:24.230Z,93.40
2022-11-30T01:56:56.823Z,93.12
2022-11-30T01:59:25.068Z,93.16
2022-11-30T02:01:53.140Z,93.40
2022-11-30T02:04:24.643Z,93.33
2022-11-30T02:06:51.314Z,93.22
2022-11-30T02:09:21.579Z,93.35
2022-11-30T02:11:49.582Z,93.40
2022-11-30T02:14:39.450Z,93.47
2022-11-30T02:17:18.868Z,93.61
2022-11-30T02:20:21.475Z,93.52
2022-11-30T02:23:40.958Z,93.41
2022-11-30T02:26:53.049Z,93.64
2022-11-30T02:29:25.126Z,93.47
2022-11-30T02:31:56.122Z,93.47
2022-11-30T02:34:27.686Z,93.64
2022-11-30T02:36:56.328Z,93.43
2022-11-30T02:39:22.658Z,93.53
2022-11-30T02:41:49.163Z,93.59
2022-11-30T02:44:16.434Z,93.65
2022-11-30T02:47:12.215Z,93.55
2022-11-30T02:49:50.505Z,93.58
2022-11-30T02:52:21.668Z,93.77
2022-11-30T02:54:48.525Z,93.84
2022-11-30T02:57:15.097Z,93.69
2022-11-30T02:59:41.602Z,93.69
2022-11-30T03:02:08.116Z,93.63
2022-11-30T03:04:34.490Z,93.91
2022-11-30T03:07:00.872Z,93.68
2022-11-30T03:09:27.182Z,93.67
2022-11-30T03:11:53.494Z,93.73
2022-11-30T03:14:19.829Z,93.69
2022-11-30T03:16:46.190Z,93.48
2022-11-30T03:19:18.079Z,93.52
2022-11-30T03:21:44.811Z,93.56
2022-11-30T03:24:12.920Z,93.50
2022-11-30T03:26:39.270Z,93.40
2022-11-30T03:29:05.763Z,93.54
2022-11-30T03:31:32.164Z,93.38
2022-11-30T03:33:59.911Z,93.49
2022-11-30T03:36:27.978Z,93.66
2022-11-30T03:38:54.408Z,93.75
2022-11-30T03:41:20.764Z,93.77
2022-11-30T03:43:47.545Z,93.72
2022-11-30T03:46:14.199Z,93.64
2022-11-30T03:48:43.222Z,93.50
2022-11-30T03:51:11.287Z,93.61
2022-11-30T03:53:38.379Z,93.73
2022-11-30T03:56:07.683Z,93.74
2022-11-30T03:58:34.465Z,93.46
2022-11-30T04:01:08.560Z,93.61
2022-11-30T04:03:35.635Z,93.79
2022-11-30T04:06:03.340Z,93.70
2022-11-30T04:08:30.328Z,93.75
2022-11-30T04:10:58.747Z,93.87
2022-11-30T04:13:25.955Z,93.77
2022-11-30T04:15:54.005Z,93.94
2022-11-30T04:18:22.015Z,93.79
2022-11-30T04:20:55.814Z,93.87
2022-11-30T04:23:23.853Z,93.73
2022-11-30T04:25:50.465Z,93.68
2022-11-30T04:28:16.886Z,93.66
2022-11-30T04:30:44.039Z,93.64
2022-11-30T04:33:10.445Z,93.72
2022-11-30T04:35:43.487Z,93.85
2022-11-30T04:38:09.849Z,93.71
2022-11-30T04:40:40.629Z,93.77
2022-11-30T04:43:07.234Z,93.69
2022-11-30T04:45:35.560Z,93.75
2022-11-30T04:48:03.109Z,93.69
2022-11-30T04:50:29.651Z,93.68
2022-11-30T04:52:56.399Z,93.68
2022-11-30T04:55:23.434Z,93.74
2022-11-30T04:57:49.795Z,93.62
2022-11-30T05:00:18.109Z,93.59
2022-11-30T05:02:51.977Z,93.63
2022-11-30T05:05:18.992Z,93.65
2022-11-30T05:07:49.614Z,93.55
2022-11-30T05:10:18.690Z,93.58
2022-11-30T05:12:45.307Z,93.63
2022-11-30T05:15:11.786Z,93.48
2022-11-30T05:17:38.236Z,93.66
2022-11-30T05:20:05.278Z,93.60
2022-11-30T05:22:31.597Z,93.63
2022-11-30T05:24:57.904Z,93.75
2022-11-30T05:27:24.239Z,93.64
2022-11-30T05:29:50.565Z,93.72
2022-11-30T05:32:16.887Z,93.42
2022-11-30T05:34:50.713Z,93.54
2022-11-30T05:37:18.395Z,93.45
2022-11-30T05:39:44.739Z,93.21
2022-11-30T05:42:11.077Z,93.30
2022-11-30T05:44:37.385Z,93.44
2022-11-30T05:47:03.838Z,93.45
2022-11-30T05:49:30.238Z,93.58
2022-11-30T05:51:56.586Z,93.58
2022-11-30T05:54:22.940Z,93.50
2022-11-30T05:56:54.421Z,93.60
2022-11-30T05:59:21.236Z,93.40
2022-11-30T06:01:49.298Z,93.42
2022-11-30T06:04:15.937Z,93.40
2022-11-30T06:06:42.250Z,93.21
2022-11-30T06:09:08.662Z,93.14
2022-11-30T06:11:34.971Z,93.27
2022-11-30T06:14:01.354Z,93.29
2022-11-30T06:16:31.545Z,93.27
2022-11-30T06:18:59.045Z,93.27
2022-11-30T06:21:25.346Z,92.98
2022-11-30T06:24:00.838Z,93.01
2022-11-30T06:26:28.775Z,92.94
2022-11-30T06:29:00.351Z,92.81
2022-11-30T06:31:29.976Z,92.73
2022-11-30T06:33:59.847Z,92.51
2022-11-30T06:36:30.118Z,92.43
2022-11-30T06:39:07.038Z,92.39
2022-11-30T06:41:33.527Z,92.28
2022-11-30T06:43:59.873Z,92.08
2022-11-30T06:46:26.920Z,92.27
2022-11-30T06:48:53.357Z,92.19
2022-11-30T06:51:20.122Z,92.18
2022-11-30T06:53:46.686Z,92.30
2022-11-30T06:56:13.169Z,92.11
2022-11-30T06:58:40.211Z,92.13
2022-11-30T07:01:09.646Z,92.37
2022-11-30T07:03:36.410Z,92.27
2022-11-30T07:06:10.878Z,92.07
2022-11-30T07:08:38.024Z,92.08
2022-11-30T07:11:05.517Z,92.10
2022-11-30T07:13:31.907Z,92.06
2022-11-30T07:15:58.204Z,91.87
2022-11-30T07:18:31.470Z,92.08
2022-11-30T07:21:06.492Z,92.01
2022-11-30T07:23:56.380Z,92.04
2022-11-30T07:26:29.846Z,92.13
2022-11-30T07:28:59.730Z,92.21
2022-11-30T07:31:31.008Z,92.28
2022-11-30T07:33:58.462Z,92.26
2022-11-30T07:36:27.771Z,92.31
2022-11-30T07:38:54.213Z,92.51
2022-11-30T07:41:20.572Z,92.48
2022-11-30T07:43:46.906Z,92.46
2022-11-30T07:46:16.243Z,92.51
2022-11-30T07:48:44.287Z,92.43
2022-11-30T07:51:15.018Z,92.58
2022-11-30T07:56:22.469Z,92.83
2022-11-30T07:58:50.625Z,92.63
2022-11-30T08:01:21.386Z,92.76
2022-11-30T08:03:49.231Z,92.88
2022-11-30T08:06:21.811Z,92.80
2022-11-30T08:08:50.211Z,93.07
2022-11-30T08:11:22.898Z,93.11
2022-11-30T08:13:49.459Z,93.16
2022-11-30T08:16:19.101Z,93.22
2022-11-30T08:18:45.601Z,93.06
2022-11-30T08:21:16.203Z,93.17
2022-11-30T08:23:45.102Z,93.04
2022-11-30T08:26:16.613Z,92.90
2022-11-30T08:28:44.533Z,92.87
2022-11-30T08:31:16.860Z,92.96
2022-11-30T08:33:43.673Z,92.88
2022-11-30T08:36:14.993Z,93.04
2022-11-30T08:38:43.480Z,93.28
2022-11-30T08:41:11.890Z,93.23
2022-11-30T08:43:38.368Z,93.18
2022-11-30T08:46:27.497Z,93.47
2022-11-30T08:49:12.607Z,93.43
2022-11-30T08:52:15.260Z,93.49
2022-11-30T08:54:29.242Z,93.67
2022-11-30T08:56:55.745Z,93.66
2022-11-30T08:59:22.173Z,93.65
2022-11-30T09:01:48.471Z,93.75
2022-11-30T09:04:14.800Z,93.91
2022-11-30T09:06:41.805Z,94.10
2022-11-30T09:09:08.223Z,94.11
2022-11-30T09:11:34.614Z,94.29
2022-11-30T09:14:04.597Z,94.51
2022-11-30T09:16:31.237Z,94.35
2022-11-30T09:19:02.037Z,94.50
2022-11-30T09:21:29.171Z,94.55
2022-11-30T09:23:55.998Z,94.73
2022-11-30T09:26:26.282Z,94.54
2022-11-30T09:28:55.881Z,94.53
2022-11-30T09:31:27.232Z,94.72
2022-11-30T09:33:56.544Z,94.78
2022-11-30T09:36:27.114Z,94.81
2022-11-30T09:38:55.073Z,95.06
2022-11-30T09:41:51.747Z,95.12
2022-11-30T09:44:24.181Z,95.04
2022-11-30T09:47:00.959Z,94.84
2022-11-30T09:49:43.240Z,94.76
2022-11-30T09:52:24.983Z,94.96
2022-11-30T09:54:51.302Z,94.85
2022-11-30T09:57:34.566Z,94.76
2022-11-30T10:00:05.295Z,94.23
2022-11-30T10:02:38.033Z,94.12
2022-11-30T10:05:13.713Z,93.62
2022-11-30T10:07:57.393Z,93.35
2022-11-30T10:10:43.279Z,93.22
2022-11-30T10:13:21.236Z,93.02
2022-11-30T10:16:21.437Z,92.95
2022-11-30T10:19:17.734Z,92.88
2022-11-30T10:22:18.111Z,92.45
2022-11-30T10:25:03.857Z,92.54
2022-11-30T10:27:55.366Z,92.43
2022-11-30T10:30:24.403Z,92.22
2022-11-30T10:32:56.236Z,92.01
2022-11-30T10:35:40.517Z,92.07
2022-11-30T10:38:27.508Z,91.86
2022-11-30T10:41:03.839Z,91.67
2022-11-30T10:43:43.435Z,91.32
2022-11-30T10:46:21.071Z,91.40
2022-11-30T10:48:57.978Z,91.19
2022-11-30T10:51:30.133Z,90.91
2022-11-30T10:53:58.378Z,90.73
2022-11-30T10:56:25.543Z,90.77
2022-11-30T10:59:04.445Z,90.48
2022-11-30T11:01:40.011Z,90.30
2022-11-30T11:04:12.667Z,89.12
2022-11-30T11:06:45.952Z,88.17
2022-11-30T11:09:35.290Z,88.53
2022-11-30T11:12:07.045Z,86.81
2022-11-30T11:14:37.955Z,86.93
2022-11-30T11:17:33.026Z,86.41
2022-11-30T11:19:59.586Z,86.72
2022-11-30T11:22:28.386Z,86.17
2022-11-30T11:25:11.164Z,86.42
2022-11-30T11:27:44.237Z,85.68
2022-11-30T11:30:14.343Z,85.76
2022-11-30T11:32:40.637Z,85.03
2022-11-30T11:35:32.374Z,84.38
2022-11-30T11:37:58.679Z,83.64
2022-11-30T11:40:25.168Z,83.56
2022-11-30T11:42:54.372Z,83.08
2022-11-30T11:45:23.563Z,82.40
2022-11-30T11:48:28.767Z,82.88
2022-11-30T11:51:07.153Z,82.44
2022-11-30T11:53:47.317Z,82.24
2022-11-30T11:56:27.239Z,81.94
2022-11-30T11:59:06.779Z,82.38
2022-11-30T12:01:48.558Z,82.49
2022-11-30T12:04:21.685Z,82.60
2022-11-30T12:06:52.857Z,82.22
2022-11-30T12:09:27.250Z,81.61
2022-11-30T12:11:53.573Z,81.57
2022-11-30T12:14:19.970Z,81.54
2022-11-30T12:17:05.911Z,80.60
2022-11-30T12:19:34.897Z,80.92
2022-11-30T12:22:20.124Z,80.67
2022-11-30T12:25:16.335Z,81.64
2022-11-30T12:27:58.996Z,81.63
2022-11-30T12:30:32.729Z,82.28
2022-11-30T12:33:21.482Z,82.36
2022-11-30T12:36:06.677Z,82.56
2022-11-30T12:38:43.283Z,82.62
2022-11-30T12:41:34.342Z,82.69
2022-11-30T12:44:48.515Z,82.88
2022-11-30T12:47:26.504Z,82.48
2022-11-30T12:50:06.453Z,82.12
2022-11-30T12:52:58.213Z,82.73
2022-11-30T12:55:34.808Z,82.65
2022-11-30T12:58:34.015Z,82.63
2022-11-30T13:01:33.842Z,82.86
2022-11-30T13:04:07.629Z,82.19
2022-11-30T13:06:39.605Z,82.57
2022-11-30T13:09:22.849Z,81.93
2022-11-30T13:11:59.498Z,81.95
2022-11-30T13:14:27.963Z,81.92
2022-11-30T13:17:06.031Z,81.81
2022-11-30T13:20:00.394Z,82.42
2022-11-30T13:22:45.630Z,82.67
2022-11-30T13:28:42.674Z,82.76
2022-11-30T13:31:23.067Z,83.07
2022-11-30T13:33:58.858Z,82.76
2022-11-30T13:36:39.909Z,82.94
2022-11-30T13:39:16.464Z,82.40
2022-11-30T13:41:45.712Z,82.68
2022-11-30T13:44:32.749Z,82.46
2022-11-30T13:47:01.683Z,82.66
2022-11-30T13:49:31.087Z,81.84
2022-11-30T13:52:21.539Z,81.75
2022-11-30T13:54:57.121Z,81.83
2022-11-30T13:57:29.619Z,81.78
2022-11-30T13:59:58.831Z,82.22
2022-11-30T14:02:31.384Z,81.90
2022-11-30T14:05:16.311Z,82.20
2022-11-30T14:07:52.081Z,82.82
2022-11-30T14:10:44.447Z,82.67
2022-11-30T14:13:10.796Z,82.53
2022-11-30T14:15:37.042Z,82.72
2022-11-30T14:18:28.576Z,82.62
2022-11-30T14:21:02.764Z,81.69
2022-11-30T14:23:48.554Z,82.38
2022-11-30T14:26:18.074Z,82.55
2022-11-30T14:28:57.548Z,82.65
2022-11-30T14:31:30.332Z,83.01
2022-11-30T14:34:09.662Z,82.37
2022-11-30T14:36:41.634Z,82.87
2022-11-30T14:39:35.709Z,83.06
2022-11-30T14:42:03.405Z,82.63
2022-11-30T14:44:35.905Z,82.64
2022-11-30T14:47:14.299Z,82.66
2022-11-30T14:49:48.647Z,82.44
2022-11-30T14:52:38.386Z,81.98
2022-11-30T14:55:35.861Z,82.54
2022-11-30T14:58:29.473Z,83.05
2022-11-30T15:00:57.277Z,83.09
2022-11-30T15:03:28.342Z,83.41
2022-11-30T15:05:58.354Z,83.37
2022-11-30T15:08:35.437Z,83.83
2022-11-30T15:11:11.705Z,83.98
2022-11-30T15:13:41.610Z,84.22
2022-11-30T15:16:26.004Z,84.51
2022-11-30T15:18:54.486Z,84.71
2022-11-30T15:21:24.860Z,84.92
2022-11-30T15:23:52.364Z,84.90
2022-11-30T15:26:24.267Z,84.86
2022-11-30T15:29:12.478Z,85.21
2022-11-30T15:31:48.929Z,85.58
2022-11-30T15:34:19.383Z,85.57
2022-11-30T15:36:46.631Z,85.98
2022-11-30T15:39:20.879Z,86.19
2022-11-30T15:41:54.098Z,86.22
2022-11-30T15:44:26.688Z,86.40
2022-11-30T15:46:59.874Z,86.69
2022-11-30T15:49:29.162Z,86.91
2022-11-30T15:52:07.699Z,86.73
2022-11-30T15:54:55.232Z,87.03
2022-11-30T15:57:24.115Z,87.05
2022-11-30T16:00:20.068Z,87.18
2022-11-30T16:02:46.425Z,87.20
2022-11-30T16:05:14.697Z,87.57
2022-11-30T16:07:48.871Z,87.47
2022-11-30T16:10:19.322Z,87.71
2022-11-30T16:12:46.821Z,87.72
2022-11-30T16:15:27.297Z,88.01
2022-11-30T16:17:58.385Z,88.24
2022-11-30T16:20:25.149Z,88.24
2022-11-30T16:22:51.610Z,88.46
2022-11-30T16:25:21.868Z,88.46
2022-11-30T16:27:49.156Z,88.85
2022-11-30T16:30:20.180Z,88.75
2022-11-30T16:32:46.762Z,88.55
2022-11-30T16:35:16.033Z,89.03
2022-11-30T16:37:42.509Z,88.84
2022-11-30T16:40:09.341Z,88.80
2022-11-30T16:42:35.654Z,88.71
2022-11-30T16:45:01.997Z,89.12
2022-11-30T16:47:28.315Z,88.82
2022-11-30T16:49:54.626Z,89.16
2022-11-30T16:52:20.943Z,89.09
2022-11-30T16:54:47.248Z,88.96
2022-11-30T16:57:13.586Z,88.94
2022-11-30T16:59:39.912Z,88.75
2022-11-30T17:02:15.639Z,88.85
2022-11-30T17:04:42.006Z,88.76
2022-11-30T17:07:08.370Z,88.86
2022-11-30T17:09:34.771Z,88.82
2022-11-30T17:12:02.175Z,88.88
2022-11-30T17:14:29.242Z,88.93
2022-11-30T17:16:55.654Z,88.85
2022-11-30T17:19:22.984Z,88.98
2022-11-30T17:21:50.740Z,88.96
2022-11-30T17:24:17.041Z,88.94
2022-11-30T17:26:43.703Z,88.79
2022-11-30T17:29:10.023Z,88.70
2022-11-30T17:31:36.859Z,88.84
2022-11-30T17:34:03.492Z,88.86
2022-11-30T17:36:29.791Z,88.79
2022-11-30T17:38:56.618Z,88.67
2022-11-30T17:41:23.023Z,88.85
2022-11-30T17:43:50.240Z,88.80
2022-11-30T17:46:18.193Z,88.94
2022-11-30T17:48:44.762Z,88.93
2022-11-30T17:51:12.104Z,89.20
2022-11-30T17:53:39.641Z,89.10
2022-11-30T17:56:17.946Z,88.93
2022-11-30T17:58:45.239Z,89.12
2022-11-30T18:01:19.493Z,88.96
2022-11-30T18:03:46.210Z,89.17
2022-11-30T18:06:13.382Z,89.05
2022-11-30T18:08:40.202Z,89.06
2022-11-30T18:11:21.839Z,88.98
2022-11-30T18:13:53.965Z,89.27
2022-11-30T18:16:24.728Z,89.16
2022-11-30T18:18:51.549Z,89.15
2022-11-30T18:21:20.491Z,89.41
2022-11-30T18:23:48.222Z,89.29
2022-11-30T18:26:17.353Z,89.41
2022-11-30T18:28:44.559Z,89.50
2022-11-30T18:31:11.165Z,89.71
2022-11-30T18:33:38.407Z,89.39
2022-11-30T18:36:08.765Z,89.59
2022-11-30T18:38:38.226Z,89.71
2022-11-30T18:41:05.587Z,89.62
2022-11-30T18:43:33.421Z,89.79
2022-11-30T18:46:04.964Z,90.38
2022-11-30T18:48:31.585Z,90.18
2022-11-30T18:50:58.198Z,90.33
2022-11-30T18:53:24.501Z,90.49
2022-11-30T18:55:51.298Z,90.65
2022-11-30T18:58:17.696Z,90.86
2022-11-30T19:00:44.015Z,90.90
2022-11-30T19:03:10.334Z,91.27
2022-11-30T19:05:38.207Z,91.32
2022-11-30T19:08:07.566Z,91.60
2022-11-30T19:10:39.646Z,91.89
2022-11-30T19:13:07.135Z,91.98
2022-11-30T19:15:40.291Z,91.80
2022-11-30T19:18:07.559Z,91.79
2022-11-30T19:20:39.188Z,92.02
2022-11-30T19:23:05.559Z,91.93
2022-11-30T19:25:31.957Z,91.82
2022-11-30T19:27:58.306Z,91.62
2022-11-30T19:30:26.152Z,91.82
2022-11-30T19:32:53.540Z,91.57
2022-11-30T19:35:19.923Z,91.71
2022-11-30T19:37:46.299Z,91.74
2022-11-30T19:40:12.874Z,91.71
2022-11-30T19:42:39.190Z,91.88
2022-11-30T19:45:06.042Z,91.71
2022-11-30T19:47:32.373Z,91.74
2022-11-30T19:49:58.678Z,91.72
2022-11-30T19:52:25.123Z,91.66
2022-11-30T19:54:51.451Z,91.85
2022-11-30T19:57:17.741Z,91.59
2022-11-30T19:59:44.074Z,91.63
2022-11-30T20:02:12.036Z,91.77
2022-11-30T20:04:39.472Z,91.81
2022-11-30T20:07:05.815Z,91.73
2022-11-30T20:09:32.449Z,91.61
2022-11-30T20:11:58.763Z,91.42
2022-11-30T20:14:25.367Z,91.54
2022-11-30T20:16:52.894Z,91.34
2022-11-30T20:19:19.224Z,91.11
2022-11-30T20:21:45.729Z,91.31
2022-11-30T20:24:12.071Z,91.37
2022-11-30T20:26:40.902Z,91.54
2022-11-30T20:29:11.509Z,91.55
2022-11-30T20:31:38.331Z,91.73
2022-11-30T20:34:05.210Z,91.69
2022-11-30T20:36:31.594Z,91.82
2022-11-30T20:38:59.620Z,92.16
2022-11-30T20:41:26.767Z,92.44
2022-11-30T20:43:53.297Z,92.43
2022-11-30T20:46:31.297Z,92.46
2022-11-30T20:48:59.420Z,92.65
2022-11-30T20:51:31.264Z,92.95
2022-11-30T20:54:00.765Z,92.71
2022-11-30T20:56:27.099Z,92.76
2022-11-30T20:58:53.428Z,92.81
2022-11-30T21:01:22.264Z,92.88
2022-11-30T21:03:48.745Z,92.73
2022-11-30T21:06:15.234Z,92.80
2022-11-30T21:08:42.283Z,92.68
2022-11-30T21:11:14.108Z,92.56
2022-11-30T21:13:41.775Z,92.42
2022-11-30T21:16:08.577Z,92.60
2022-11-30T21:18:36.275Z,92.62
2022-11-30T21:21:05.315Z,92.54
2022-11-30T21:23:32.599Z,92.44
2022-11-30T21:26:07.357Z,92.42
2022-11-30T21:28:38.058Z,92.53
2022-11-30T21:31:05.368Z,92.57
2022-11-30T21:33:31.854Z,92.48
2022-11-30T21:35:58.237Z,92.25
2022-11-30T21:38:24.568Z,92.40
2022-11-30T21:40:59.009Z,92.36
2022-11-30T21:43:26.435Z,92.50
2022-11-30T21:46:05.303Z,92.33
2022-11-30T21:48:35.285Z,92.29
2022-11-30T21:51:08.085Z,92.27
2022-11-30T21:53:43.022Z,92.37
2022-11-30T21:56:12.862Z,92.22
2022-11-30T21:58:44.215Z,92.20
2022-11-30T22:01:13.086Z,92.24
2022-11-30T22:03:39.648Z,92.21
2022-11-30T22:06:11.372Z,92.31
2022-11-30T22:08:38.303Z,92.27
2022-11-30T22:11:11.159Z,92.22
2022-11-30T22:13:41.073Z,92.04
2022-11-30T22:16:10.465Z,92.03
2022-11-30T22:18:37.613Z,92.38
2022-11-30T22:21:12.793Z,92.50
2022-11-30T22:23:44.241Z,92.30
2022-11-30T22:26:11.830Z,92.44
2022-11-30T22:28:39.410Z,92.66
2022-11-30T22:31:08.815Z,92.64
2022-11-30T22:33:36.870Z,92.65
2022-11-30T22:36:04.614Z,92.72
2022-11-30T22:38:31.785Z,92.52
2022-11-30T22:41:07.000Z,92.67
2022-11-30T22:43:33.834Z,92.57
2022-11-30T22:46:11.800Z,92.52
2022-11-30T22:48:38.487Z,92.31
2022-11-30T22:51:07.366Z,92.53
2022-11-30T22:53:35.986Z,92.32
2022-11-30T22:56:05.017Z,92.43
2022-11-30T22:58:31.783Z,92.38
2022-11-30T23:00:59.190Z,92.18
2022-11-30T23:03:27.422Z,92.35
2022-11-30T23:05:54.954Z,91.91
2022-11-30T23:08:21.543Z,91.98
2022-11-30T23:10:47.941Z,92.19
2022-11-30T23:13:14.246Z,92.01
2022-11-30T23:15:40.605Z,92.24
2022-11-30T23:18:06.923Z,92.08
2022-11-30T23:20:35.246Z,92.24
2022-11-30T23:23:01.678Z,92.26
2022-11-30T23:25:27.990Z,92.49
2022-11-30T23:27:54.304Z,92.38
2022-11-30T23:30:20.797Z,92.60
2022-11-30T23:32:47.296Z,92.75
2022-11-30T23:35:13.596Z,92.82
2022-11-30T23:37:39.942Z,92.69
2022-11-30T23:40:07.094Z,92.75
2022-11-30T23:42:33.599Z,93.08
2022-11-30T23:45:00.999Z,92.90
2022-11-30T23:47:27.479Z,92.94
2022-11-30T23:49:53.797Z,93.02
2022-11-30T23:52:20.148Z,93.20
2022-11-30T23:54:46.470Z,93.15
2022-11-30T23:57:12.774Z,93.11
2022-11-30T23:59:39.320Z,93.44
